createdAt,value
2023-02-03T00:02:35.156Z,7.49
2023-02-03T00:07:35.053Z,7.50
2023-02-03T00:12:35.026Z,7.50
2023-02-03T00:17:34.943Z,7.50
2023-02-03T00:22:34.868Z,7.51
2023-02-03T00:27:34.784Z,7.52
2023-02-03T00:32:34.794Z,7.53
2023-02-03T00:37:34.666Z,7.55
2023-02-03T00:42:34.611Z,7.56
2023-02-03T00:47:34.494Z,7.56
2023-02-03T00:52:34.475Z,7.55
2023-02-03T00:57:34.377Z,7.55
2023-02-03T01:02:34.361Z,7.56
2023-02-03T01:07:43.749Z,7.55
2023-02-03T01:12:36.135Z,7.52
2023-02-03T01:17:36.107Z,7.48
2023-02-03T01:22:36.012Z,7.47
2023-02-03T01:27:36.072Z,7.46
2023-02-03T01:32:35.864Z,7.46
2023-02-03T01:37:35.811Z,7.47
2023-02-03T01:42:35.745Z,7.47
2023-02-03T01:47:35.687Z,7.48
2023-02-03T01:52:35.595Z,7.50
2023-02-03T01:57:35.544Z,7.53
2023-02-03T02:02:35.537Z,7.58
2023-02-03T02:07:35.435Z,7.64
2023-02-03T02:12:35.329Z,7.68
2023-02-03T02:17:35.283Z,7.72
2023-02-03T02:22:35.211Z,7.74
2023-02-03T02:27:35.156Z,7.75
2023-02-03T02:32:35.052Z,7.75
2023-02-03T02:37:35.028Z,7.73
2023-02-03T02:42:34.917Z,7.72
2023-02-03T02:47:34.932Z,7.69
2023-02-03T02:52:34.801Z,7.67
2023-02-03T02:57:34.751Z,7.64
2023-02-03T03:02:34.678Z,7.61
2023-02-03T03:07:34.629Z,7.58
2023-02-03T03:12:34.541Z,7.56
2023-02-03T03:17:34.468Z,7.57
2023-02-03T03:22:34.402Z,7.62
2023-02-03T03:27:34.396Z,7.67
2023-02-03T03:32:34.284Z,7.73
2023-02-03T03:37:34.229Z,7.77
2023-02-03T03:42:34.143Z,7.81
2023-02-03T03:47:34.105Z,7.83
2023-02-03T03:52:34.008Z,7.86
2023-02-03T03:57:33.954Z,7.88
2023-02-03T04:02:33.966Z,7.89
2023-02-03T04:07:33.813Z,7.90
2023-02-03T04:12:33.729Z,7.90
2023-02-03T04:17:33.688Z,7.90
2023-02-03T04:22:33.601Z,7.89
2023-02-03T04:27:33.554Z,7.88
2023-02-03T04:32:33.455Z,7.87
2023-02-03T04:37:33.423Z,7.85
2023-02-03T04:42:33.329Z,7.85
2023-02-03T04:47:33.243Z,7.86
2023-02-03T04:52:33.198Z,7.89
2023-02-03T04:57:33.161Z,7.93
2023-02-03T05:02:33.046Z,7.96
2023-02-03T05:07:33.022Z,7.99
2023-02-03T05:12:32.915Z,8.02
2023-02-03T05:17:52.459Z,8.03
2023-02-03T05:22:44.849Z,8.02
2023-02-03T05:27:44.821Z,8.00
2023-02-03T05:32:44.715Z,7.99
2023-02-03T05:37:44.626Z,7.99
2023-02-03T05:42:44.618Z,8.00
2023-02-03T05:47:44.496Z,8.02
2023-02-03T05:52:44.456Z,8.03
2023-02-03T05:57:44.449Z,8.04
2023-02-03T06:02:44.463Z,8.06
2023-02-03T06:07:44.232Z,8.07
2023-02-03T06:12:44.175Z,8.08
2023-02-03T06:17:44.106Z,8.09
2023-02-03T06:22:44.048Z,8.10
2023-02-03T06:27:43.978Z,8.12
2023-02-03T06:32:43.978Z,8.14
2023-02-03T06:37:43.847Z,8.16
2023-02-03T06:42:43.779Z,8.16
2023-02-03T06:47:43.720Z,8.18
2023-02-03T06:52:43.655Z,8.19
2023-02-03T06:57:43.577Z,8.20
2023-02-03T07:02:43.637Z,8.23
2023-02-03T07:07:43.441Z,8.27
2023-02-03T07:12:43.377Z,8.32
2023-02-03T07:17:43.292Z,8.39
2023-02-03T07:22:43.257Z,8.46
2023-02-03T07:27:43.204Z,8.54
2023-02-03T07:32:43.455Z,8.61
2023-02-03T07:37:43.062Z,8.69
2023-02-03T07:42:42.985Z,8.77
2023-02-03T07:47:42.879Z,8.84
2023-02-03T07:52:42.872Z,8.90
2023-02-03T07:57:42.771Z,8.95
2023-02-03T08:02:42.714Z,9.00
2023-02-03T08:07:42.641Z,9.05
2023-02-03T08:12:44.819Z,9.11
2023-02-03T08:17:42.525Z,9.17
2023-02-03T08:22:42.434Z,9.22
2023-02-03T08:27:42.420Z,9.28
2023-02-03T08:32:42.298Z,9.32
2023-02-03T08:37:42.224Z,9.35
2023-02-03T08:42:42.156Z,9.38
2023-02-03T08:47:42.102Z,9.42
2023-02-03T08:52:42.021Z,9.47
2023-02-03T08:57:41.962Z,9.50
2023-02-03T09:02:41.924Z,9.53
2023-02-03T09:07:41.825Z,9.56
2023-02-03T09:12:41.749Z,9.60
2023-02-03T09:17:41.692Z,9.64
2023-02-03T09:22:41.649Z,9.68
2023-02-03T09:27:41.577Z,9.73
2023-02-03T09:32:41.512Z,9.79
2023-02-03T09:37:41.450Z,9.86
2023-02-03T09:42:41.403Z,9.93
2023-02-03T09:47:41.307Z,9.98
2023-02-03T09:52:41.242Z,10.02
2023-02-03T09:57:41.165Z,10.08
2023-02-03T10:02:41.185Z,10.12
2023-02-03T10:07:41.014Z,10.15
2023-02-03T10:12:40.952Z,10.17
2023-02-03T10:17:40.892Z,10.17
2023-02-03T10:22:40.824Z,10.13
2023-02-03T10:27:40.817Z,10.06
2023-02-03T10:32:40.682Z,9.96
2023-02-03T10:37:40.610Z,9.85
2023-02-03T10:42:40.548Z,9.72
2023-02-03T10:47:40.572Z,9.60
2023-02-03T10:52:40.407Z,9.51
2023-02-03T10:57:40.423Z,9.47
2023-02-03T11:02:40.382Z,9.44
2023-02-03T11:07:40.228Z,9.43
2023-02-03T11:12:40.214Z,9.42
2023-02-03T11:17:40.106Z,9.42
2023-02-03T11:22:40.008Z,9.42
2023-02-03T11:27:40.019Z,9.43
2023-02-03T11:32:39.887Z,9.41
2023-02-03T11:37:39.847Z,9.39
2023-02-03T11:42:39.731Z,9.37
2023-02-03T11:47:39.756Z,9.37
2023-02-03T11:52:39.607Z,9.41
2023-02-03T11:57:39.560Z,9.50
2023-02-03T12:02:39.500Z,9.62
2023-02-03T12:07:39.420Z,9.70
2023-02-03T12:12:39.343Z,9.77
2023-02-03T12:17:39.282Z,9.81
2023-02-03T12:22:39.209Z,9.85
2023-02-03T12:27:39.390Z,9.88
2023-02-03T12:32:39.074Z,9.92
2023-02-03T12:37:39.501Z,9.96
2023-02-03T12:42:38.962Z,10.00
2023-02-03T12:47:38.872Z,10.05
2023-02-03T12:52:38.810Z,10.11
2023-02-03T12:57:38.749Z,10.17
2023-02-03T13:02:38.659Z,10.22
2023-02-03T13:07:38.652Z,10.24
2023-02-03T13:12:38.545Z,10.25
2023-02-03T13:17:38.499Z,10.24
2023-02-03T13:22:38.393Z,10.22
2023-02-03T13:27:38.402Z,10.22
2023-02-03T13:32:38.268Z,10.22
2023-02-03T13:37:38.259Z,10.22
2023-02-03T13:42:38.165Z,10.23
2023-02-03T13:47:38.102Z,10.26
2023-02-03T13:52:38.018Z,10.31
2023-02-03T13:57:37.938Z,10.36
2023-02-03T14:02:37.882Z,10.39
2023-02-03T14:07:37.853Z,10.41
2023-02-03T14:12:37.751Z,10.46
2023-02-03T14:17:37.701Z,10.50
2023-02-03T14:22:37.602Z,10.50
2023-02-03T14:27:37.579Z,10.48
2023-02-03T14:32:37.448Z,10.45
2023-02-03T14:37:37.454Z,10.40
2023-02-03T14:42:37.338Z,10.34
2023-02-03T14:47:37.287Z,10.29
2023-02-03T14:52:37.181Z,10.24
2023-02-03T14:57:37.148Z,10.18
2023-02-03T15:02:37.042Z,10.14
2023-02-03T15:07:36.979Z,10.16
2023-02-03T15:12:36.914Z,10.22
2023-02-03T15:17:36.920Z,10.30
2023-02-03T15:22:36.783Z,10.36
2023-02-03T15:27:36.808Z,10.41
2023-02-03T15:32:36.663Z,10.45
2023-02-03T15:37:36.579Z,10.42
2023-02-03T15:42:36.507Z,10.34
2023-02-03T15:47:36.471Z,10.24
2023-02-03T15:52:36.397Z,10.13
2023-02-03T15:57:36.330Z,10.03
2023-02-03T16:02:36.257Z,9.93
2023-02-03T16:07:36.193Z,9.83
2023-02-03T16:12:36.096Z,9.75
2023-02-03T16:17:36.070Z,9.68
2023-02-03T16:22:35.967Z,9.64
2023-02-03T16:27:35.934Z,9.61
2023-02-03T16:32:35.859Z,9.59
2023-02-03T16:37:35.845Z,9.58
2023-02-03T16:42:35.711Z,9.57
2023-02-03T16:47:35.680Z,9.56
2023-02-03T16:52:35.578Z,9.56
2023-02-03T16:57:35.621Z,9.56
2023-02-03T17:02:35.492Z,9.57
2023-02-03T17:07:35.421Z,9.59
2023-02-03T17:12:35.319Z,9.59
2023-02-03T17:17:35.268Z,9.60
2023-02-03T17:22:35.172Z,9.59
2023-02-03T17:27:35.123Z,9.56
2023-02-03T17:32:35.052Z,9.53
2023-02-03T17:37:34.995Z,9.48
2023-02-03T17:54:12.775Z,10.35
2023-02-03T17:59:12.677Z,9.82
2023-02-03T18:04:12.605Z,9.50
2023-02-03T18:09:12.532Z,9.29
2023-02-03T18:14:12.463Z,9.15
2023-02-03T18:19:12.394Z,9.05
2023-02-03T18:24:12.365Z,8.99
2023-02-03T18:29:12.250Z,8.94
2023-02-03T18:34:12.857Z,8.91
2023-02-03T18:39:12.760Z,8.89
2023-02-03T18:44:12.102Z,8.88
2023-02-03T18:49:12.015Z,8.87
2023-02-03T18:54:11.959Z,8.86
2023-02-03T18:59:11.904Z,8.85
2023-02-03T19:04:11.837Z,8.83
2023-02-03T19:09:11.739Z,8.82
2023-02-03T19:14:11.738Z,8.81
2023-02-03T19:19:11.625Z,8.81
2023-02-03T19:24:11.565Z,8.80
2023-02-03T19:29:11.614Z,8.78
2023-02-03T19:34:11.440Z,8.75
2023-02-03T19:39:11.369Z,8.73
2023-02-03T19:44:11.297Z,8.71
2023-02-03T19:49:11.228Z,8.70
2023-02-03T19:54:11.202Z,8.70
2023-02-03T19:59:11.121Z,8.70
2023-02-03T20:04:11.067Z,8.71
2023-02-03T20:09:10.962Z,8.72
2023-02-03T20:14:11.639Z,8.74
2023-02-03T20:19:10.852Z,8.75
2023-02-03T20:24:10.808Z,8.77
2023-02-03T20:29:10.727Z,8.80
2023-02-03T20:34:10.690Z,8.81
2023-02-03T20:39:10.589Z,8.82
2023-02-03T20:44:10.572Z,8.82
2023-02-03T20:49:10.451Z,8.80
2023-02-03T20:54:10.430Z,8.80
2023-02-03T20:59:10.338Z,8.79
2023-02-03T21:04:11.938Z,8.80
2023-02-03T21:09:10.179Z,8.82
2023-02-03T21:14:10.163Z,8.83
2023-02-03T21:19:10.086Z,8.85
2023-02-03T21:24:10.038Z,8.86
2023-02-03T21:29:09.967Z,8.87
2023-02-03T21:34:09.900Z,8.88
2023-02-03T21:39:09.792Z,8.89
2023-02-03T21:44:09.780Z,8.89
2023-02-03T21:49:09.679Z,8.89
2023-02-03T21:54:09.623Z,8.89
2023-02-03T21:59:09.542Z,8.87
2023-02-03T22:04:09.487Z,8.85
2023-02-03T22:09:09.422Z,8.83
2023-02-03T22:14:09.350Z,8.81
2023-02-03T22:19:09.264Z,8.78
2023-02-03T22:24:09.227Z,8.74
2023-02-03T22:29:09.220Z,8.70
2023-02-03T22:34:09.135Z,8.67
2023-02-03T22:39:09.005Z,8.63
2023-02-03T22:44:08.948Z,8.61
2023-02-03T22:49:08.884Z,8.58
2023-02-03T22:54:08.806Z,8.55
2023-02-03T22:59:08.768Z,8.53
2023-02-03T23:04:08.698Z,8.50
2023-02-03T23:09:08.600Z,8.47
2023-02-03T23:14:08.550Z,8.45
2023-02-03T23:19:08.482Z,8.43
2023-02-03T23:24:08.416Z,8.42
2023-02-03T23:29:08.355Z,8.41
2023-02-03T23:34:08.293Z,8.40
2023-02-03T23:39:08.193Z,8.40
2023-02-03T23:44:08.162Z,8.39
2023-02-03T23:49:08.102Z,8.38
2023-02-03T23:54:08.047Z,8.37
2023-02-03T23:59:07.962Z,8.36
